Time;durP1;ratioP1;P1;durP2;ratioP2;P2;SDS_P1;SDS_P2;PMS_P1;PMS_P2;Temp;Humidity;BMP_temperature;BMP_pressure;BME280_temperature;BME280_humidity;BME280_pressure;Samples;Min_cycle;Max_cycle;Signal;HPM_P1;HPM_P2
2023/06/12 00:02:18;;;;;;;8.10;6.63;;;;;20.00;100908.00;;;;10172276;28;20225;-79
2023/06/12 00:07:21;;;;;;;8.40;7.32;;;;;20.00;100898.00;;;;10178728;28;20263;-75
2023/06/12 00:12:23;;;;;;;8.15;7.05;;;;;20.00;100895.00;;;;10158490;28;20255;-77
2023/06/12 00:17:26;;;;;;;8.82;6.90;;;;;19.90;100894.00;;;;10162936;28;20316;-77
2023/06/12 00:22:28;;;;;;;8.23;7.32;;;;;19.80;100904.00;;;;10163031;28;20273;-75
2023/06/12 00:27:30;;;;;;;8.38;6.85;;;;;19.80;100898.00;;;;10161256;28;20341;-78
2023/06/12 00:32:33;;;;;;;7.95;7.15;;;;;19.80;100905.00;;;;10163032;28;20732;-76
2023/06/12 00:37:35;;;;;;;9.23;7.38;;;;;19.80;100913.00;;;;10160853;28;20240;-76
2023/06/12 00:42:55;;;;;;;9.55;7.82;;;;;19.80;100910.00;;;;10162901;28;21385;-78
2023/06/12 00:47:58;;;;;;;8.25;6.97;;;;;19.60;100904.00;;;;10160814;28;20889;-75
2023/06/12 00:53:01;;;;;;;9.90;7.78;;;;;19.60;100909.00;;;;10161630;28;20308;-77
2023/06/12 00:58:03;;;;;;;8.65;7.85;;;;;19.50;100912.00;;;;10162776;28;20221;-76
2023/06/12 01:03:12;;;;;;;15.18;7.72;;;;;19.50;100910.00;;;;10160521;28;20319;-75
2023/06/12 01:08:29;;;;;;;8.48;7.68;;;;;19.30;100922.00;;;;10159158;28;20240;-75
2023/06/12 01:13:33;;;;;;;11.75;8.00;;;;;19.20;100918.00;;;;10159208;28;20212;-77
2023/06/12 01:18:36;;;;;;;14.30;8.20;;;;;19.10;100911.00;;;;10160442;28;20224;-77
2023/06/12 01:24:11;;;;;;;11.73;8.30;;;;;19.00;100908.00;;;;10140793;28;20319;-77
2023/06/12 01:29:35;;;;;;;11.90;8.75;;;;;18.90;100903.00;;;;10178149;28;20241;-74
2023/06/12 01:34:54;;;;;;;10.02;8.63;;;;;18.70;100915.00;;;;10159784;28;20222;-77
2023/06/12 01:40:07;;;;;;;9.95;8.75;;;;;18.60;100909.00;;;;10156311;28;20884;-76
2023/06/12 01:45:10;;;;;;;11.07;8.75;;;;;18.50;100909.00;;;;10156713;28;20217;-74
2023/06/12 01:50:14;;;;;;;9.20;8.30;;;;;18.40;100910.00;;;;10155963;28;20824;-76
2023/06/12 01:55:19;;;;;;;12.27;9.25;;;;;18.40;100920.00;;;;10157138;28;20710;-76
2023/06/12 02:00:22;;;;;;;9.03;8.23;;;;;18.40;100919.00;;;;10152374;28;20297;-75
2023/06/12 02:05:28;;;;;;;20.25;9.90;;;;;18.30;100920.00;;;;10156319;28;20220;-76
2023/06/12 02:10:30;;;;;;;9.80;8.68;;;;;18.30;100916.00;;;;10159752;28;20206;-75
2023/06/12 02:15:32;;;;;;;13.30;8.90;;;;;18.20;100912.00;;;;10156128;28;20340;-78
2023/06/12 02:20:35;;;;;;;9.68;8.77;;;;;18.10;100922.00;;;;10170472;28;20212;-75
2023/06/12 02:25:37;;;;;;;10.10;8.88;;;;;17.90;100918.00;;;;10170545;28;20208;-76
2023/06/12 02:30:39;;;;;;;10.57;9.23;;;;;17.70;100918.00;;;;10201420;28;20217;-76
2023/06/12 02:35:42;;;;;;;11.80;9.15;;;;;17.70;100919.00;;;;10179859;28;20221;-76
2023/06/12 02:40:46;;;;;;;11.13;9.65;;;;;17.60;100921.00;;;;10164758;28;20277;-76
2023/06/12 02:45:48;;;;;;;13.93;9.45;;;;;17.50;100924.00;;;;10179002;28;20350;-74
2023/06/12 02:50:50;;;;;;;11.57;8.93;;;;;17.50;100936.00;;;;10170202;28;20604;-74
2023/06/12 02:55:52;;;;;;;11.10;9.10;;;;;17.50;100928.00;;;;10174375;28;20961;-76
2023/06/12 03:00:56;;;;;;;11.00;9.18;;;;;17.40;100928.00;;;;10141943;28;20217;-75
2023/06/12 03:06:00;;;;;;;11.88;9.93;;;;;17.40;100922.00;;;;10154398;28;21319;-75
2023/06/12 03:11:02;;;;;;;11.35;10.18;;;;;17.30;100930.00;;;;10154280;28;20205;-75
2023/06/12 03:16:09;;;;;;;11.85;10.43;;;;;17.30;100931.00;;;;10156197;28;21343;-78
2023/06/12 03:21:12;;;;;;;11.70;10.10;;;;;17.20;100928.00;;;;10155154;28;20233;-75
2023/06/12 03:26:14;;;;;;;14.00;8.80;;;;;17.00;100929.00;;;;10155312;28;20220;-75
2023/06/12 03:31:16;;;;;;;10.68;9.60;;;;;17.00;100930.00;;;;10138870;28;20774;-76
2023/06/12 03:36:19;;;;;;;10.25;9.25;;;;;17.00;100931.00;;;;10155179;28;21398;-75
2023/06/12 03:41:22;;;;;;;9.83;8.93;;;;;17.00;100936.00;;;;10156072;28;20201;-76
2023/06/12 03:46:25;;;;;;;10.07;9.07;;;;;17.00;100944.00;;;;10156111;28;20225;-75
2023/06/12 03:51:27;;;;;;;10.65;9.65;;;;;17.20;100938.00;;;;10162554;28;20244;-76
2023/06/12 03:56:32;;;;;;;14.07;9.68;;;;;17.50;100947.00;;;;10132491;28;20360;-76
2023/06/12 04:01:34;;;;;;;12.02;9.05;;;;;17.90;100952.00;;;;10159049;28;20221;-75
2023/06/12 04:06:40;;;;;;;11.15;8.77;;;;;18.40;100952.00;;;;10163725;28;20256;-77
2023/06/12 04:11:46;;;;;;;9.98;8.98;;;;;18.90;100962.00;;;;10172937;28;21600;-78
2023/06/12 04:16:48;;;;;;;10.70;9.45;;;;;19.20;100976.00;;;;10160814;28;20320;-74
2023/06/12 04:21:51;;;;;;;9.88;8.85;;;;;19.30;100972.00;;;;10146619;28;20670;-78
2023/06/12 04:26:54;;;;;;;9.95;8.85;;;;;19.20;100975.00;;;;10159528;28;21271;-75
2023/06/12 04:31:57;;;;;;;9.65;8.43;;;;;19.10;100979.00;;;;10167195;28;20244;-77
2023/06/12 04:36:59;;;;;;;12.68;9.82;;;;;19.10;100971.00;;;;10160022;28;20572;-76
2023/06/12 04:42:03;;;;;;;9.45;8.40;;;;;19.00;100965.00;;;;10161857;28;20346;-76
2023/06/12 04:47:08;;;;;;;11.82;9.05;;;;;19.00;100977.00;;;;10176441;28;20463;-78
2023/06/12 04:52:12;;;;;;;11.40;10.00;;;;;19.00;100979.00;;;;10159455;28;20988;-76
2023/06/12 04:57:16;;;;;;;14.50;9.55;;;;;19.30;100979.00;;;;10126485;28;21894;-75
2023/06/12 05:02:19;;;;;;;9.70;8.48;;;;;19.60;100974.00;;;;10183853;28;20921;-75
2023/06/12 05:07:22;;;;;;;13.50;9.07;;;;;20.00;100975.00;;;;10159058;28;20225;-76
2023/06/12 05:12:28;;;;;;;10.80;8.95;;;;;20.50;100973.00;;;;10171876;28;20243;-76
2023/06/12 05:17:32;;;;;;;12.60;9.15;;;;;21.10;100977.00;;;;10158455;28;20839;-75
2023/06/12 05:22:37;;;;;;;14.82;8.80;;;;;21.60;100976.00;;;;10171319;28;20216;-77
2023/06/12 05:27:40;;;;;;;11.05;8.35;;;;;22.00;100973.00;;;;10171466;28;20229;-77
2023/06/12 05:32:42;;;;;;;8.85;8.02;;;;;22.30;100982.00;;;;10177539;28;20267;-77
2023/06/12 05:37:46;;;;;;;8.70;7.80;;;;;22.80;100977.00;;;;10177308;28;20650;-75
2023/06/12 05:42:48;;;;;;;12.90;8.25;;;;;23.10;100971.00;;;;10180914;28;20442;-77
2023/06/12 05:47:51;;;;;;;11.35;8.20;;;;;23.50;100968.00;;;;10179770;28;20749;-77
2023/06/12 05:52:53;;;;;;;12.45;7.95;;;;;23.80;100967.00;;;;10185414;28;20208;-76
2023/06/12 05:57:55;;;;;;;11.80;8.55;;;;;24.10;100968.00;;;;10173853;28;20217;-78
2023/06/12 06:02:58;;;;;;;9.10;7.95;;;;;24.40;100972.00;;;;10157911;28;21403;-76
2023/06/12 06:08:07;;;;;;;12.02;7.65;;;;;24.50;100970.00;;;;10156014;28;20654;-75
2023/06/12 06:13:12;;;;;;;8.63;7.72;;;;;24.80;100974.00;;;;10181195;28;20212;-78
2023/06/12 06:18:14;;;;;;;8.35;7.50;;;;;25.00;100975.00;;;;10150460;28;20248;-81
2023/06/12 06:23:17;;;;;;;8.23;7.43;;;;;25.20;100981.00;;;;10160028;28;20218;-76
2023/06/12 06:28:20;;;;;;;11.73;7.80;;;;;25.70;100985.00;;;;10151243;28;20225;-76
2023/06/12 06:33:22;;;;;;;7.90;6.82;;;;;26.20;100985.00;;;;10155381;28;20251;-76
2023/06/12 06:38:25;;;;;;;12.63;7.07;;;;;26.40;100985.00;;;;10155251;28;20221;-76
2023/06/12 06:43:28;;;;;;;8.23;7.00;;;;;26.60;100987.00;;;;10156558;28;21203;-74
2023/06/12 06:48:32;;;;;;;9.85;6.93;;;;;26.80;100991.00;;;;10166533;28;20222;-76
2023/06/12 06:53:37;;;;;;;10.00;6.75;;;;;27.30;100992.00;;;;10156650;28;20300;-75
2023/06/12 06:58:40;;;;;;;7.28;6.10;;;;;27.70;100991.00;;;;10156866;28;20354;-76
2023/06/12 07:03:42;;;;;;;8.98;6.25;;;;;28.00;100985.00;;;;10159468;28;20233;-75
2023/06/12 07:08:45;;;;;;;6.53;5.88;;;;;28.50;100980.00;;;;10157718;28;20226;-75
2023/06/12 07:13:47;;;;;;;6.68;5.88;;;;;28.70;100984.00;;;;10184796;28;21462;-77
2023/06/12 07:18:49;;;;;;;8.32;5.93;;;;;28.90;100985.00;;;;10158522;28;20595;-76
2023/06/12 07:23:52;;;;;;;8.30;5.63;;;;;29.30;100980.00;;;;10160594;28;20363;-77
2023/06/12 07:28:55;;;;;;;6.65;5.53;;;;;29.70;100987.00;;;;10138972;28;20315;-77
2023/06/12 07:34:01;;;;;;;7.85;5.32;;;;;30.20;100991.00;;;;10156492;28;20235;-75
2023/06/12 07:39:08;;;;;;;8.05;5.63;;;;;30.60;100973.00;;;;10156859;28;20302;-75
2023/06/12 07:44:10;;;;;;;7.97;5.65;;;;;31.10;100978.00;;;;10157762;28;20225;-77
2023/06/12 07:49:14;;;;;;;8.15;5.30;;;;;31.20;100969.00;;;;10156745;28;20325;-76
2023/06/12 07:54:17;;;;;;;6.47;5.68;;;;;31.50;100976.00;;;;10146887;28;20968;-78
2023/06/12 07:59:20;;;;;;;8.98;5.82;;;;;31.70;100973.00;;;;10159337;28;20300;-75
2023/06/12 08:04:29;;;;;;;11.00;6.18;;;;;32.10;100977.00;;;;10187545;28;20221;-77
2023/06/12 08:09:31;;;;;;;8.20;5.70;;;;;32.50;100977.00;;;;10143776;28;20660;-75
2023/06/12 08:14:34;;;;;;;6.95;5.30;;;;;32.80;100977.00;;;;10155769;28;20923;-76
2023/06/12 08:19:36;;;;;;;9.45;5.20;;;;;32.90;100965.00;;;;10175956;28;20213;-77
2023/06/12 08:24:41;;;;;;;6.68;5.32;;;;;33.20;100962.00;;;;10110920;28;20236;-76
2023/06/12 08:29:43;;;;;;;5.95;4.82;;;;;33.50;100972.00;;;;10145533;28;20221;-77
2023/06/12 08:34:45;;;;;;;6.10;5.30;;;;;33.50;100972.00;;;;10164495;28;20209;-78
2023/06/12 08:39:48;;;;;;;8.32;5.10;;;;;33.80;100968.00;;;;10162011;28;20602;-75
2023/06/12 08:44:59;;;;;;;7.88;4.82;;;;;34.10;100966.00;;;;10144492;28;20223;-77
2023/06/12 08:50:23;;;;;;;6.00;4.45;;;;;34.30;100966.00;;;;10162990;28;20228;-78
2023/06/12 08:55:26;;;;;;;5.05;4.55;;;;;34.50;100964.00;;;;10188237;28;20213;-77
2023/06/12 09:00:28;;;;;;;9.43;5.07;;;;;34.40;100964.00;;;;10165983;28;20352;-77
2023/06/12 09:05:35;;;;;;;5.32;4.35;;;;;34.60;100964.00;;;;10163722;28;21167;-76
2023/06/12 09:10:41;;;;;;;7.65;4.38;;;;;34.80;100965.00;;;;10159277;28;20928;-78
2023/06/12 09:15:51;;;;;;;8.57;4.55;;;;;34.90;100966.00;;;;10148873;28;20897;-77
2023/06/12 09:20:53;;;;;;;6.70;4.68;;;;;35.30;100964.00;;;;10176054;28;20201;-77
2023/06/12 09:25:57;;;;;;;8.68;5.00;;;;;35.40;100958.00;;;;10176693;28;20307;-78
2023/06/12 09:31:16;;;;;;;5.35;4.60;;;;;35.80;100961.00;;;;10185797;28;20454;-78
2023/06/12 09:36:20;;;;;;;7.03;4.15;;;;;35.90;100958.00;;;;10339582;23;20236;-77
2023/06/12 09:41:25;;;;;;;6.38;4.30;;;;;35.80;100958.00;;;;10150033;28;20201;-76
2023/06/12 09:46:30;;;;;;;5.93;4.68;;;;;36.00;100956.00;;;;10141439;28;20812;-77
2023/06/12 09:51:33;;;;;;;4.78;4.25;;;;;36.50;100956.00;;;;10158822;28;20296;-77
2023/06/12 09:56:36;;;;;;;5.15;4.65;;;;;36.40;100963.00;;;;10158997;28;22022;-75
2023/06/12 10:01:39;;;;;;;5.25;4.20;;;;;36.60;100969.00;;;;10158612;28;20216;-77
2023/06/12 10:06:42;;;;;;;5.13;4.22;;;;;36.60;100968.00;;;;10164954;28;21398;-78
2023/06/12 10:11:45;;;;;;;5.00;4.28;;;;;36.60;100971.00;;;;10169390;28;20224;-78
2023/06/12 10:16:49;;;;;;;5.25;4.45;;;;;36.90;100952.00;;;;10169602;28;21744;-77
2023/06/12 10:21:53;;;;;;;7.03;4.22;;;;;36.90;100950.00;;;;10173683;28;20213;-78
2023/06/12 10:26:56;;;;;;;7.22;4.60;;;;;36.80;100953.00;;;;10160061;28;20210;-77
2023/06/12 10:32:10;;;;;;;6.65;4.40;;;;;37.10;100945.00;;;;10163377;28;20217;-77
2023/06/12 10:37:33;;;;;;;4.65;4.05;;;;;37.60;100942.00;;;;10172486;28;20249;-77
2023/06/12 10:42:53;;;;;;;4.50;4.10;;;;;37.80;100939.00;;;;10171441;28;20415;-77
2023/06/12 10:48:12;;;;;;;6.35;4.38;;;;;37.90;100929.00;;;;10184908;28;20216;-77
2023/06/12 10:53:29;;;;;;;5.93;4.22;;;;;38.30;100927.00;;;;10175944;28;20262;-78
2023/06/12 10:58:39;;;;;;;4.25;3.72;;;;;38.50;100915.00;;;;10172483;28;21373;-77
2023/06/12 11:03:42;;;;;;;6.10;4.35;;;;;38.60;100920.00;;;;10175513;28;20737;-77
2023/06/12 11:08:47;;;;;;;7.00;4.07;;;;;38.60;100916.00;;;;10158637;28;20210;-78
2023/06/12 11:13:49;;;;;;;5.35;4.35;;;;;38.60;100917.00;;;;10177301;28;20220;-76
2023/06/12 11:19:05;;;;;;;5.20;4.75;;;;;38.80;100918.00;;;;10175342;28;20362;-77
2023/06/12 11:24:10;;;;;;;7.05;4.40;;;;;39.30;100912.00;;;;10182556;28;20208;-78
2023/06/12 11:29:22;;;;;;;5.40;4.22;;;;;39.30;100909.00;;;;10185521;28;20213;-78
2023/06/12 11:34:35;;;;;;;5.82;3.95;;;;;38.90;100907.00;;;;10175015;28;21242;-77
2023/06/12 11:39:42;;;;;;;7.35;3.70;;;;;39.20;100903.00;;;;10185235;28;20232;-77
2023/06/12 11:44:50;;;;;;;7.78;4.28;;;;;40.00;100896.00;;;;10181752;28;20212;-77
2023/06/12 11:49:52;;;;;;;4.38;3.95;;;;;40.40;100894.00;;;;10178102;28;20265;-77
2023/06/12 11:55:00;;;;;;;4.38;3.85;;;;;40.30;100889.00;;;;10177262;28;20211;-77
2023/06/12 12:00:14;;;;;;;5.38;3.80;;;;;40.40;100874.00;;;;10181990;28;20951;-77
2023/06/12 12:05:18;;;;;;;4.97;3.92;;;;;39.90;100882.00;;;;10176641;28;20208;-77
2023/06/12 12:10:21;;;;;;;4.28;3.72;;;;;40.10;100875.00;;;;10188291;28;20227;-78
2023/06/12 12:15:23;;;;;;;3.75;3.45;;;;;39.50;100882.00;;;;10182798;28;20274;-77
2023/06/12 12:20:28;;;;;;;4.32;3.95;;;;;39.30;100871.00;;;;10172416;28;20323;-74
2023/06/12 12:25:31;;;;;;;3.90;3.60;;;;;39.40;100870.00;;;;10172947;28;20228;-77
2023/06/12 12:30:33;;;;;;;4.45;3.83;;;;;39.60;100869.00;;;;10146770;28;21935;-77
2023/06/12 12:35:35;;;;;;;4.20;3.85;;;;;39.70;100864.00;;;;10176764;28;20212;-78
2023/06/12 12:40:38;;;;;;;4.57;4.18;;;;;39.70;100860.00;;;;10179958;28;20225;-77
2023/06/12 12:45:39;;;;;;;4.03;3.63;;;;;40.00;100851.00;;;;10173193;28;20957;-77
2023/06/12 12:50:42;;;;;;;4.72;3.83;;;;;40.00;100856.00;;;;10166910;28;20813;-76
2023/06/12 12:56:03;;;;;;;4.45;3.80;;;;;39.30;100849.00;;;;10171891;28;20458;-78
2023/06/12 13:01:05;;;;;;;6.30;4.15;;;;;39.30;100847.00;;;;10180842;28;21309;-78
2023/06/12 13:06:11;;;;;;;69.03;9.57;;;;;39.00;100846.00;;;;10182333;28;20236;-77
2023/06/12 13:11:13;;;;;;;4.88;3.58;;;;;38.90;100835.00;;;;10185434;28;20209;-78
2023/06/12 13:16:15;;;;;;;7.40;3.50;;;;;39.00;100835.00;;;;10182973;28;20215;-77
2023/06/12 13:21:17;;;;;;;4.65;3.60;;;;;39.20;100833.00;;;;10166959;28;20224;-77
2023/06/12 13:26:20;;;;;;;6.25;3.58;;;;;39.40;100826.00;;;;10190200;28;20220;-77
2023/06/12 13:31:22;;;;;;;5.22;3.65;;;;;39.20;100821.00;;;;10125086;28;20243;-77
2023/06/12 13:36:24;;;;;;;4.63;3.45;;;;;39.20;100828.00;;;;10173502;28;20335;-76
2023/06/12 13:41:27;;;;;;;4.28;3.78;;;;;38.90;100829.00;;;;10200024;28;20288;-77
2023/06/12 13:46:31;;;;;;;4.70;3.42;;;;;38.90;100822.00;;;;10185104;28;20213;-76
2023/06/12 13:51:37;;;;;;;5.20;3.47;;;;;38.80;100815.00;;;;10186741;28;20213;-77
2023/06/12 13:56:39;;;;;;;3.05;2.70;;;;;38.70;100824.00;;;;10198159;28;20208;-78
2023/06/12 14:01:42;;;;;;;3.95;2.88;;;;;38.40;100813.00;;;;10179825;28;20227;-77
2023/06/12 14:06:48;;;;;;;4.45;3.65;;;;;38.20;100814.00;;;;10183128;28;20208;-78
2023/06/12 14:11:53;;;;;;;4.47;3.28;;;;;38.00;100810.00;;;;10179457;28;20567;-74
2023/06/12 14:16:55;;;;;;;3.72;3.33;;;;;37.70;100805.00;;;;10182683;28;20213;-76
2023/06/12 14:21:57;;;;;;;5.80;3.60;;;;;37.70;100808.00;;;;10185540;28;20248;-77
2023/06/12 14:27:00;;;;;;;4.00;2.83;;;;;37.70;100793.00;;;;10183210;28;20212;-77
2023/06/12 14:32:03;;;;;;;4.78;3.40;;;;;37.90;100782.00;;;;10181737;28;20631;-78
2023/06/12 14:37:05;;;;;;;3.45;3.15;;;;;38.10;100777.00;;;;10183266;28;20687;-77
2023/06/12 14:42:07;;;;;;;5.30;3.63;;;;;38.50;100769.00;;;;10186770;28;20220;-78
2023/06/12 14:47:10;;;;;;;3.45;3.15;;;;;39.30;100778.00;;;;10185926;28;20220;-78
2023/06/12 14:52:12;;;;;;;3.63;3.33;;;;;39.60;100764.00;;;;10182399;28;20216;-77
2023/06/12 14:57:33;;;;;;;4.95;3.38;;;;;40.60;100752.00;;;;10181614;28;20861;-77
2023/06/12 15:02:36;;;;;;;4.25;3.50;;;;;41.80;100758.00;;;;10189445;28;20235;-78
2023/06/12 15:07:38;;;;;;;5.43;3.75;;;;;42.20;100755.00;;;;10180444;28;20876;-79
2023/06/12 15:12:40;;;;;;;4.13;3.53;;;;;42.90;100749.00;;;;10173567;28;21601;-76
2023/06/12 15:18:00;;;;;;;4.10;3.70;;;;;43.60;100750.00;;;;10183393;28;20256;-77
2023/06/12 15:23:02;;;;;;;4.47;4.07;;;;;44.10;100746.00;;;;10179709;28;21390;-77
2023/06/12 15:28:05;;;;;;;4.68;3.67;;;;;44.70;100735.00;;;;10194356;28;20238;-77
2023/06/12 15:33:07;;;;;;;7.07;4.13;;;;;44.10;100744.00;;;;10199138;28;20216;-76
2023/06/12 15:38:34;;;;;;;6.53;4.20;;;;;39.50;100751.00;;;;10194323;28;20221;-75
2023/06/12 15:43:37;;;;;;;7.25;3.95;;;;;39.10;100749.00;;;;10198845;28;21214;-76
2023/06/12 15:48:43;;;;;;;5.30;3.78;;;;;37.80;100741.00;;;;10198886;28;20296;-77
2023/06/12 15:53:46;;;;;;;5.35;4.10;;;;;35.90;100743.00;;;;10192635;28;20209;-78
2023/06/12 15:58:48;;;;;;;5.43;4.60;;;;;34.80;100733.00;;;;10196523;28;20229;-77
2023/06/12 16:03:53;;;;;;;4.63;4.22;;;;;34.50;100733.00;;;;10184310;28;20292;-77
2023/06/12 16:08:55;;;;;;;5.50;4.07;;;;;34.20;100722.00;;;;10195673;28;21948;-76
2023/06/12 16:13:57;;;;;;;4.55;4.15;;;;;33.80;100729.00;;;;10198925;28;20226;-75
2023/06/12 16:18:59;;;;;;;6.75;4.07;;;;;33.60;100723.00;;;;10197811;28;20225;-78
2023/06/12 16:24:02;;;;;;;4.60;4.20;;;;;33.40;100715.00;;;;10174295;28;20417;-74
2023/06/12 16:29:04;;;;;;;7.97;4.47;;;;;33.00;100704.00;;;;10187442;28;20221;-74
2023/06/12 16:34:06;;;;;;;5.50;4.40;;;;;32.90;100698.00;;;;10172797;28;20867;-75
2023/06/12 16:39:08;;;;;;;5.72;4.22;;;;;32.70;100693.00;;;;10177085;28;20800;-75
2023/06/12 16:44:12;;;;;;;6.90;4.35;;;;;32.50;100695.00;;;;10177994;28;20212;-75
2023/06/12 16:49:14;;;;;;;10.75;4.57;;;;;32.40;100700.00;;;;10162870;28;20202;-75
2023/06/12 16:54:16;;;;;;;4.50;4.10;;;;;32.20;100687.00;;;;10163801;28;20217;-75
2023/06/12 16:59:19;;;;;;;4.97;4.57;;;;;32.10;100678.00;;;;10165298;28;20533;-76
2023/06/12 17:04:21;;;;;;;4.72;4.22;;;;;32.10;100677.00;;;;10163546;28;20624;-77
2023/06/12 17:09:23;;;;;;;4.30;4.00;;;;;32.20;100676.00;;;;10166112;28;20637;-77
2023/06/12 17:14:25;;;;;;;5.57;4.32;;;;;32.30;100679.00;;;;10169741;28;20929;-77
2023/06/12 17:19:27;;;;;;;5.05;4.53;;;;;32.40;100679.00;;;;10164222;28;20309;-77
2023/06/12 17:24:29;;;;;;;8.05;4.40;;;;;32.70;100680.00;;;;10165327;28;20695;-77
2023/06/12 17:29:31;;;;;;;8.45;4.80;;;;;32.70;100678.00;;;;10168598;28;20205;-76
2023/06/12 17:34:34;;;;;;;5.53;5.00;;;;;32.20;100680.00;;;;10164138;28;20647;-77
2023/06/12 17:39:36;;;;;;;6.88;4.63;;;;;31.70;100672.00;;;;10169198;28;20229;-77
2023/06/12 17:44:42;;;;;;;12.25;5.18;;;;;31.40;100679.00;;;;10179221;28;20209;-75
2023/06/12 17:49:44;;;;;;;6.63;5.00;;;;;31.20;100680.00;;;;10174716;28;20325;-75
2023/06/12 17:54:46;;;;;;;7.35;4.85;;;;;30.90;100673.00;;;;10161757;28;20727;-77
2023/06/12 17:59:48;;;;;;;6.28;5.07;;;;;30.60;100671.00;;;;10158015;28;21437;-76
2023/06/12 18:04:50;;;;;;;8.50;5.25;;;;;30.30;100658.00;;;;10174503;28;20202;-75
2023/06/12 18:09:53;;;;;;;6.65;4.50;;;;;30.00;100669.00;;;;10180010;28;20326;-75
2023/06/12 18:14:55;;;;;;;5.70;5.20;;;;;29.80;100666.00;;;;10185520;28;20212;-77
2023/06/12 18:19:57;;;;;;;5.82;4.93;;;;;29.50;100669.00;;;;10178733;28;20240;-75
2023/06/12 18:24:59;;;;;;;6.32;4.82;;;;;29.30;100666.00;;;;10163391;28;20232;-75
2023/06/12 18:30:02;;;;;;;9.73;4.95;;;;;29.00;100669.00;;;;10172044;28;20291;-75
2023/06/12 18:35:06;;;;;;;6.13;5.30;;;;;28.80;100667.00;;;;10165683;28;20201;-79
2023/06/12 18:40:09;;;;;;;6.47;5.20;;;;;28.50;100665.00;;;;10156000;28;20228;-76
2023/06/12 18:45:11;;;;;;;6.90;5.28;;;;;28.30;100664.00;;;;10187092;28;20221;-77
2023/06/12 18:50:14;;;;;;;6.72;5.10;;;;;28.20;100669.00;;;;10158516;28;20294;-75
2023/06/12 18:55:16;;;;;;;5.60;5.10;;;;;28.10;100678.00;;;;10163216;28;20239;-77
2023/06/12 19:00:18;;;;;;;9.70;5.40;;;;;27.90;100671.00;;;;10161897;28;20682;-76
2023/06/12 19:05:20;;;;;;;7.97;5.03;;;;;27.80;100676.00;;;;10161028;28;21442;-74
2023/06/12 19:10:23;;;;;;;7.70;4.68;;;;;27.60;100683.00;;;;10169140;28;20259;-76
2023/06/12 19:15:41;;;;;;;7.85;5.30;;;;;27.50;100683.00;;;;10164015;28;20210;-81
2023/06/12 19:20:43;;;;;;;6.80;5.32;;;;;27.40;100690.00;;;;10177546;28;20237;-76
2023/06/12 19:25:46;;;;;;;8.18;4.97;;;;;27.20;100685.00;;;;10174677;28;20310;-78
2023/06/12 19:30:51;;;;;;;6.22;5.03;;;;;27.00;100686.00;;;;10186382;28;20243;-78
2023/06/12 19:35:53;;;;;;;6.30;5.57;;;;;26.70;100695.00;;;;10182389;28;20251;-77
2023/06/12 19:40:59;;;;;;;7.18;5.30;;;;;26.50;100691.00;;;;10178180;28;20225;-77
2023/06/12 19:46:01;;;;;;;9.15;5.90;;;;;26.30;100700.00;;;;10171838;28;20224;-77
2023/06/12 19:51:03;;;;;;;6.78;5.03;;;;;26.10;100706.00;;;;10156582;28;20220;-77
2023/06/12 19:56:05;;;;;;;9.65;5.97;;;;;25.80;100702.00;;;;10184370;28;20209;-79
2023/06/12 20:01:07;;;;;;;10.05;6.10;;;;;25.70;100717.00;;;;10177425;28;20243;-78
2023/06/12 20:06:09;;;;;;;7.03;5.72;;;;;25.50;100715.00;;;;10182012;28;20519;-78
2023/06/12 20:11:12;;;;;;;7.85;6.38;;;;;25.40;100710.00;;;;10185409;28;20216;-78
2023/06/12 20:16:14;;;;;;;7.80;5.88;;;;;25.30;100711.00;;;;10182407;28;20308;-77
2023/06/12 20:21:16;;;;;;;7.20;5.47;;;;;25.10;100720.00;;;;10185259;28;20238;-78
2023/06/12 20:26:19;;;;;;;7.88;5.80;;;;;25.00;100720.00;;;;10183941;28;20336;-78
2023/06/12 20:31:22;;;;;;;9.77;5.90;;;;;24.90;100721.00;;;;10184357;28;20286;-76
2023/06/12 20:36:24;;;;;;;6.60;5.57;;;;;24.80;100718.00;;;;10173574;28;20587;-76
2023/06/12 20:41:26;;;;;;;7.63;5.75;;;;;24.80;100721.00;;;;10174035;28;20249;-76
2023/06/12 20:46:28;;;;;;;7.63;5.93;;;;;24.70;100728.00;;;;10167488;28;20268;-76
2023/06/12 20:51:32;;;;;;;6.50;5.90;;;;;24.60;100733.00;;;;10185083;28;20205;-77
2023/06/12 20:56:34;;;;;;;9.68;6.68;;;;;24.50;100741.00;;;;10190363;28;20362;-76
2023/06/12 21:01:37;;;;;;;11.63;6.55;;;;;24.40;100736.00;;;;10182955;28;20965;-77
2023/06/12 21:06:39;;;;;;;7.18;5.85;;;;;24.30;100743.00;;;;10179733;28;20213;-77
2023/06/12 21:11:41;;;;;;;6.95;6.18;;;;;24.10;100735.00;;;;10166270;28;21187;-77
2023/06/12 21:16:45;;;;;;;10.43;6.10;;;;;24.00;100740.00;;;;10180341;28;20205;-76
2023/06/12 21:21:48;;;;;;;7.65;6.53;;;;;23.90;100735.00;;;;10170559;28;21563;-75
2023/06/12 21:27:00;;;;;;;11.80;6.35;;;;;23.80;100737.00;;;;10165846;28;20271;-76
2023/06/12 21:32:03;;;;;;;10.75;6.00;;;;;23.80;100735.00;;;;10169438;28;20205;-76
2023/06/12 21:37:06;;;;;;;8.73;6.78;;;;;23.70;100733.00;;;;10177521;28;20213;-78
2023/06/12 21:42:24;;;;;;;8.77;6.43;;;;;23.60;100734.00;;;;10173411;28;20267;-76
2023/06/12 21:47:26;;;;;;;9.23;6.40;;;;;23.40;100733.00;;;;10160520;28;20283;-76
2023/06/12 21:52:29;;;;;;;11.10;6.72;;;;;23.30;100726.00;;;;10172516;28;20295;-76
2023/06/12 21:57:31;;;;;;;9.38;6.57;;;;;23.20;100730.00;;;;10171849;28;20753;-76
2023/06/12 22:02:33;;;;;;;7.07;6.38;;;;;23.00;100728.00;;;;10168362;28;21023;-76
2023/06/12 22:07:38;;;;;;;10.65;6.60;;;;;22.90;100734.00;;;;10169849;28;20337;-76
2023/06/12 22:12:40;;;;;;;11.48;7.10;;;;;22.70;100732.00;;;;10160709;28;20601;-77
2023/06/12 22:17:42;;;;;;;8.95;7.07;;;;;22.70;100733.00;;;;10167717;28;20212;-77
2023/06/12 22:22:45;;;;;;;7.88;6.32;;;;;22.60;100737.00;;;;10186706;28;20209;-78
2023/06/12 22:27:49;;;;;;;7.82;6.70;;;;;22.50;100741.00;;;;10187239;28;20232;-78
2023/06/12 22:32:51;;;;;;;8.02;6.57;;;;;22.40;100748.00;;;;10181515;28;20233;-80
2023/06/12 22:37:53;;;;;;;8.48;6.80;;;;;22.40;100745.00;;;;10181073;28;20640;-79
2023/06/12 22:42:55;;;;;;;8.48;6.22;;;;;22.30;100750.00;;;;10180290;28;20225;-77
2023/06/12 22:47:57;;;;;;;7.88;7.05;;;;;22.30;100742.00;;;;10178203;28;21243;-74
2023/06/12 22:52:59;;;;;;;8.27;6.20;;;;;22.30;100747.00;;;;10176123;28;20358;-78
2023/06/12 22:58:01;;;;;;;12.38;7.40;;;;;22.20;100750.00;;;;10187580;28;20208;-78
2023/06/12 23:03:04;;;;;;;8.02;7.22;;;;;22.10;100755.00;;;;10184309;28;20303;-78
2023/06/12 23:08:06;;;;;;;9.35;7.18;;;;;22.00;100754.00;;;;10175341;28;20221;-76
2023/06/12 23:13:08;;;;;;;9.00;6.93;;;;;22.00;100761.00;;;;10167056;28;20237;-75
2023/06/12 23:18:10;;;;;;;8.70;7.53;;;;;21.90;100755.00;;;;10167919;28;20213;-76
2023/06/12 23:23:19;;;;;;;8.63;6.57;;;;;21.90;100760.00;;;;10168746;28;20237;-76
2023/06/12 23:28:22;;;;;;;11.32;7.57;;;;;21.80;100760.00;;;;10172696;28;20256;-78
2023/06/12 23:33:24;;;;;;;9.80;7.00;;;;;21.80;100759.00;;;;10162602;28;20229;-77
2023/06/12 23:38:26;;;;;;;8.60;7.47;;;;;21.70;100758.00;;;;10181009;28;20304;-79
2023/06/12 23:43:28;;;;;;;10.98;7.45;;;;;21.60;100761.00;;;;10170212;28;20210;-76
2023/06/12 23:48:30;;;;;;;10.02;7.03;;;;;21.40;100763.00;;;;10164070;28;20939;-76
2023/06/12 23:53:32;;;;;;;8.43;7.35;;;;;21.30;100767.00;;;;10165226;28;21056;-76
2023/06/12 23:58:34;;;;;;;8.02;7.20;;;;;21.10;100761.00;;;;10162426;28;21923;-75
